sensor_id;sensor_type;location;lat;lon;timestamp;pressure;altitude;pressure_sealevel;temperature;humidity
59971;BME280;45825;45.434;9.116;2023-07-09T00:01:55;100710.19;;;26.54;75.07
59971;BME280;45825;45.434;9.116;2023-07-09T00:04:21;100706.78;;;26.60;74.58
59971;BME280;45825;45.434;9.116;2023-07-09T00:06:46;100697.22;;;26.49;72.63
59971;BME280;45825;45.434;9.116;2023-07-09T00:09:13;100709.72;;;26.50;72.97
59971;BME280;45825;45.434;9.116;2023-07-09T00:11:40;100714.25;;;26.50;72.63
59971;BME280;45825;45.434;9.116;2023-07-09T00:14:07;100715.75;;;26.29;72.33
59971;BME280;45825;45.434;9.116;2023-07-09T00:16:33;100720.03;;;26.47;72.87
59971;BME280;45825;45.434;9.116;2023-07-09T00:18:58;100726.25;;;26.47;72.24
59971;BME280;45825;45.434;9.116;2023-07-09T00:21:23;100715.47;;;26.24;72.91
59971;BME280;45825;45.434;9.116;2023-07-09T00:23:49;100715.34;;;26.41;72.10
59971;BME280;45825;45.434;9.116;2023-07-09T00:26:15;100708.75;;;26.43;72.23
59971;BME280;45825;45.434;9.116;2023-07-09T00:28:41;100710.06;;;26.16;71.98
59971;BME280;45825;45.434;9.116;2023-07-09T00:31:15;100708.81;;;26.35;71.63
59971;BME280;45825;45.434;9.116;2023-07-09T00:33:42;100713.16;;;26.36;71.57
59971;BME280;45825;45.434;9.116;2023-07-09T00:36:21;100717.47;;;26.22;72.72
59971;BME280;45825;45.434;9.116;2023-07-09T00:38:49;100720.13;;;26.30;71.98
59971;BME280;45825;45.434;9.116;2023-07-09T00:41:21;100717.44;;;26.30;72.15
59971;BME280;45825;45.434;9.116;2023-07-09T00:43:49;100718.16;;;26.24;72.81
59971;BME280;45825;45.434;9.116;2023-07-09T00:48:50;100714.44;;;26.25;72.07
59971;BME280;45825;45.434;9.116;2023-07-09T00:51:19;100718.53;;;26.13;73.08
59971;BME280;45825;45.434;9.116;2023-07-09T00:53:46;100719.34;;;26.21;72.96
59971;BME280;45825;45.434;9.116;2023-07-09T00:56:16;100711.91;;;26.15;72.93
59971;BME280;45825;45.434;9.116;2023-07-09T00:58:46;100717.50;;;26.14;73.05
59971;BME280;45825;45.434;9.116;2023-07-09T01:01:16;100725.75;;;26.20;72.45
59971;BME280;45825;45.434;9.116;2023-07-09T01:03:46;100721.38;;;26.19;72.65
59971;BME280;45825;45.434;9.116;2023-07-09T01:06:13;100723.22;;;26.19;71.28
59971;BME280;45825;45.434;9.116;2023-07-09T01:08:40;100721.19;;;26.21;70.92
59971;BME280;45825;45.434;9.116;2023-07-09T01:11:19;100718.16;;;26.16;70.97
59971;BME280;45825;45.434;9.116;2023-07-09T01:13:52;100722.56;;;26.08;70.50
59971;BME280;45825;45.434;9.116;2023-07-09T01:16:21;100722.22;;;26.12;69.99
59971;BME280;45825;45.434;9.116;2023-07-09T01:18:49;100727.47;;;26.05;69.04
59971;BME280;45825;45.434;9.116;2023-07-09T01:21:14;100720.75;;;26.01;69.34
59971;BME280;45825;45.434;9.116;2023-07-09T01:23:48;100728.16;;;26.07;69.06
59971;BME280;45825;45.434;9.116;2023-07-09T01:26:22;100725.16;;;25.93;68.25
59971;BME280;45825;45.434;9.116;2023-07-09T01:28:55;100731.72;;;25.99;68.29
59971;BME280;45825;45.434;9.116;2023-07-09T01:31:20;100728.19;;;25.99;67.70
59971;BME280;45825;45.434;9.116;2023-07-09T01:33:46;100732.06;;;25.96;66.78
59971;BME280;45825;45.434;9.116;2023-07-09T01:36:14;100727.69;;;25.95;67.18
59971;BME280;45825;45.434;9.116;2023-07-09T01:38:41;100729.00;;;25.99;67.38
59971;BME280;45825;45.434;9.116;2023-07-09T01:41:06;100730.03;;;25.98;66.30
59971;BME280;45825;45.434;9.116;2023-07-09T01:43:33;100717.44;;;25.90;66.46
59971;BME280;45825;45.434;9.116;2023-07-09T01:45:58;100725.81;;;25.95;65.17
59971;BME280;45825;45.434;9.116;2023-07-09T01:48:27;100729.22;;;25.98;65.74
59971;BME280;45825;45.434;9.116;2023-07-09T01:50:53;100733.91;;;25.95;65.04
59971;BME280;45825;45.434;9.116;2023-07-09T01:53:23;100727.47;;;26.05;64.87
59971;BME280;45825;45.434;9.116;2023-07-09T01:55:51;100728.69;;;26.02;64.22
59971;BME280;45825;45.434;9.116;2023-07-09T01:58:17;100729.91;;;25.91;64.38
59971;BME280;45825;45.434;9.116;2023-07-09T02:00:42;100729.88;;;26.00;64.51
59971;BME280;45825;45.434;9.116;2023-07-09T02:03:10;100733.72;;;26.05;63.52
59971;BME280;45825;45.434;9.116;2023-07-09T02:05:36;100733.31;;;25.85;63.95
59971;BME280;45825;45.434;9.116;2023-07-09T02:08:02;100727.66;;;26.03;63.40
59971;BME280;45825;45.434;9.116;2023-07-09T02:10:28;100721.78;;;26.00;63.59
59971;BME280;45825;45.434;9.116;2023-07-09T02:12:53;100717.13;;;25.85;63.05
59971;BME280;45825;45.434;9.116;2023-07-09T02:15:18;100727.88;;;25.93;63.40
59971;BME280;45825;45.434;9.116;2023-07-09T02:17:44;100727.19;;;25.91;62.97
59971;BME280;45825;45.434;9.116;2023-07-09T02:20:10;100729.91;;;25.91;63.33
59971;BME280;45825;45.434;9.116;2023-07-09T02:22:37;100735.56;;;25.65;64.34
59971;BME280;45825;45.434;9.116;2023-07-09T02:25:04;100732.84;;;25.73;64.43
59971;BME280;45825;45.434;9.116;2023-07-09T02:27:31;100727.59;;;25.80;64.20
59971;BME280;45825;45.434;9.116;2023-07-09T02:29:56;100726.28;;;25.67;64.17
59971;BME280;45825;45.434;9.116;2023-07-09T02:32:24;100732.97;;;25.80;64.19
59971;BME280;45825;45.434;9.116;2023-07-09T02:34:51;100728.59;;;25.79;64.40
59971;BME280;45825;45.434;9.116;2023-07-09T02:37:19;100730.53;;;25.62;64.59
59971;BME280;45825;45.434;9.116;2023-07-09T02:39:44;100733.50;;;25.75;64.71
59971;BME280;45825;45.434;9.116;2023-07-09T02:42:15;100730.66;;;25.77;64.12
59971;BME280;45825;45.434;9.116;2023-07-09T02:44:41;100735.41;;;25.58;63.84
59971;BME280;45825;45.434;9.116;2023-07-09T02:47:07;100743.63;;;25.65;64.66
59971;BME280;45825;45.434;9.116;2023-07-09T02:49:33;100748.19;;;25.64;66.34
59971;BME280;45825;45.434;9.116;2023-07-09T02:51:58;100749.53;;;25.60;67.37
59971;BME280;45825;45.434;9.116;2023-07-09T02:54:24;100754.94;;;25.44;69.05
59971;BME280;45825;45.434;9.116;2023-07-09T02:56:49;100753.97;;;25.53;68.37
59971;BME280;45825;45.434;9.116;2023-07-09T02:59:15;100751.06;;;25.55;69.39
59971;BME280;45825;45.434;9.116;2023-07-09T03:01:40;100754.28;;;25.25;72.56
59971;BME280;45825;45.434;9.116;2023-07-09T03:04:05;100757.66;;;25.44;72.61
59971;BME280;45825;45.434;9.116;2023-07-09T03:06:32;100760.50;;;25.42;74.29
59971;BME280;45825;45.434;9.116;2023-07-09T03:09:01;100763.22;;;25.25;76.60
59971;BME280;45825;45.434;9.116;2023-07-09T03:11:29;100762.88;;;25.20;79.84
59971;BME280;45825;45.434;9.116;2023-07-09T03:13:56;100766.75;;;25.26;80.36
59971;BME280;45825;45.434;9.116;2023-07-09T03:16:21;100775.31;;;25.30;82.03
59971;BME280;45825;45.434;9.116;2023-07-09T03:18:47;100779.53;;;25.07;85.85
59971;BME280;45825;45.434;9.116;2023-07-09T03:21:12;100782.06;;;25.17;84.52
59971;BME280;45825;45.434;9.116;2023-07-09T03:23:38;100768.44;;;25.19;84.16
59971;BME280;45825;45.434;9.116;2023-07-09T03:26:03;100771.63;;;25.14;84.51
59971;BME280;45825;45.434;9.116;2023-07-09T03:28:31;100782.06;;;25.01;87.03
59971;BME280;45825;45.434;9.116;2023-07-09T03:30:57;100780.72;;;25.13;85.96
59971;BME280;45825;45.434;9.116;2023-07-09T03:33:23;100780.56;;;25.15;86.78
59971;BME280;45825;45.434;9.116;2023-07-09T03:35:48;100776.69;;;24.84;89.10
59971;BME280;45825;45.434;9.116;2023-07-09T03:38:13;100781.41;;;24.99;88.59
59971;BME280;45825;45.434;9.116;2023-07-09T03:40:39;100784.25;;;25.05;88.67
59971;BME280;45825;45.434;9.116;2023-07-09T03:43:05;100781.56;;;24.97;88.66
59971;BME280;45825;45.434;9.116;2023-07-09T03:45:31;100779.38;;;25.01;89.62
59971;BME280;45825;45.434;9.116;2023-07-09T03:47:57;100780.91;;;25.03;89.74
59971;BME280;45825;45.434;9.116;2023-07-09T03:50:22;100781.41;;;24.99;90.63
59971;BME280;45825;45.434;9.116;2023-07-09T03:52:47;100793.09;;;24.64;94.78
59971;BME280;45825;45.434;9.116;2023-07-09T03:55:13;100781.72;;;24.79;93.17
59971;BME280;45825;45.434;9.116;2023-07-09T03:57:39;100788.63;;;24.81;93.89
59971;BME280;45825;45.434;9.116;2023-07-09T04:00:06;100790.44;;;24.81;93.26
59971;BME280;45825;45.434;9.116;2023-07-09T04:02:35;100785.41;;;24.78;95.43
59971;BME280;45825;45.434;9.116;2023-07-09T04:05:00;100791.97;;;24.83;95.49
59971;BME280;45825;45.434;9.116;2023-07-09T04:07:26;100787.44;;;24.92;94.78
59971;BME280;45825;45.434;9.116;2023-07-09T04:09:51;100795.97;;;24.71;95.94
59971;BME280;45825;45.434;9.116;2023-07-09T04:12:16;100790.13;;;24.84;95.37
59971;BME280;45825;45.434;9.116;2023-07-09T04:14:42;100792.66;;;24.94;93.46
59971;BME280;45825;45.434;9.116;2023-07-09T04:17:07;100800.06;;;24.92;90.79
59971;BME280;45825;45.434;9.116;2023-07-09T04:19:32;100798.03;;;24.94;89.68
59971;BME280;45825;45.434;9.116;2023-07-09T04:21:57;100799.06;;;25.09;85.63
59971;BME280;45825;45.434;9.116;2023-07-09T04:24:23;100793.84;;;25.16;81.17
59971;BME280;45825;45.434;9.116;2023-07-09T04:26:48;100792.00;;;25.00;82.12
59971;BME280;45825;45.434;9.116;2023-07-09T04:29:14;100798.22;;;25.17;81.01
59971;BME280;45825;45.434;9.116;2023-07-09T04:31:40;100805.81;;;25.22;79.94
59971;BME280;45825;45.434;9.116;2023-07-09T04:34:05;100796.19;;;25.11;80.80
59971;BME280;45825;45.434;9.116;2023-07-09T04:36:31;100803.41;;;25.19;82.04
59971;BME280;45825;45.434;9.116;2023-07-09T04:38:57;100803.06;;;25.30;82.80
59971;BME280;45825;45.434;9.116;2023-07-09T04:41:22;100797.53;;;25.23;83.83
59971;BME280;45825;45.434;9.116;2023-07-09T04:43:48;100803.78;;;24.99;85.23
59971;BME280;45825;45.434;9.116;2023-07-09T04:46:14;100801.75;;;25.18;85.64
59971;BME280;45825;45.434;9.116;2023-07-09T04:48:39;100794.19;;;25.21;85.92
59971;BME280;45825;45.434;9.116;2023-07-09T04:51:05;100797.56;;;25.07;87.85
59971;BME280;45825;45.434;9.116;2023-07-09T04:53:30;100805.44;;;25.25;87.46
59971;BME280;45825;45.434;9.116;2023-07-09T04:55:55;100799.88;;;25.35;82.56
59971;BME280;45825;45.434;9.116;2023-07-09T04:58:21;100798.19;;;25.42;83.84
59971;BME280;45825;45.434;9.116;2023-07-09T05:00:46;100800.72;;;25.44;73.51
59971;BME280;45825;45.434;9.116;2023-07-09T05:03:12;100807.13;;;25.59;72.02
59971;BME280;45825;45.434;9.116;2023-07-09T05:05:47;100801.72;;;25.59;70.20
59971;BME280;45825;45.434;9.116;2023-07-09T05:08:13;100805.78;;;25.38;69.66
59971;BME280;45825;45.434;9.116;2023-07-09T05:10:46;100803.91;;;25.64;69.53
59971;BME280;45825;45.434;9.116;2023-07-09T05:13:12;100804.41;;;25.67;67.63
59971;BME280;45825;45.434;9.116;2023-07-09T05:15:40;100797.00;;;25.61;67.46
59971;BME280;45825;45.434;9.116;2023-07-09T05:18:06;100812.63;;;25.83;66.73
59971;BME280;45825;45.434;9.116;2023-07-09T05:20:33;100802.66;;;25.91;66.50
59971;BME280;45825;45.434;9.116;2023-07-09T05:22:58;100796.81;;;25.79;65.94
59971;BME280;45825;45.434;9.116;2023-07-09T05:25:23;100808.56;;;25.87;65.65
59971;BME280;45825;45.434;9.116;2023-07-09T05:27:49;100809.22;;;25.97;65.03
59971;BME280;45825;45.434;9.116;2023-07-09T05:30:14;100804.19;;;25.94;65.22
59971;BME280;45825;45.434;9.116;2023-07-09T05:32:39;100808.28;;;25.65;66.22
59971;BME280;45825;45.434;9.116;2023-07-09T05:35:05;100812.63;;;25.83;65.61
59971;BME280;45825;45.434;9.116;2023-07-09T05:37:31;100806.38;;;25.90;66.05
59971;BME280;45825;45.434;9.116;2023-07-09T05:39:56;100813.25;;;26.01;65.26
59971;BME280;45825;45.434;9.116;2023-07-09T05:42:21;100807.00;;;26.01;64.90
59971;BME280;45825;45.434;9.116;2023-07-09T05:44:47;100811.72;;;26.07;64.61
59971;BME280;45825;45.434;9.116;2023-07-09T05:47:12;100812.19;;;26.11;65.50
59971;BME280;45825;45.434;9.116;2023-07-09T05:49:38;100815.75;;;26.19;65.79
59971;BME280;45825;45.434;9.116;2023-07-09T05:52:04;100819.44;;;26.10;64.93
59971;BME280;45825;45.434;9.116;2023-07-09T05:54:30;100826.03;;;26.07;65.57
59971;BME280;45825;45.434;9.116;2023-07-09T05:56:56;100822.28;;;26.17;66.25
59971;BME280;45825;45.434;9.116;2023-07-09T05:59:21;100826.00;;;26.24;66.03
59971;BME280;45825;45.434;9.116;2023-07-09T06:01:46;100826.66;;;26.26;64.89
59971;BME280;45825;45.434;9.116;2023-07-09T06:04:12;100834.91;;;26.25;65.46
59971;BME280;45825;45.434;9.116;2023-07-09T06:06:39;100837.25;;;26.28;64.18
59971;BME280;45825;45.434;9.116;2023-07-09T06:09:06;100835.16;;;26.46;65.67
59971;BME280;45825;45.434;9.116;2023-07-09T06:11:31;100837.16;;;26.53;63.70
59971;BME280;45825;45.434;9.116;2023-07-09T06:13:56;100842.88;;;26.49;62.97
59971;BME280;45825;45.434;9.116;2023-07-09T06:16:23;100833.94;;;26.57;62.44
59971;BME280;45825;45.434;9.116;2023-07-09T06:18:48;100832.44;;;26.55;62.23
59971;BME280;45825;45.434;9.116;2023-07-09T06:21:13;100834.75;;;26.58;62.61
59971;BME280;45825;45.434;9.116;2023-07-09T06:23:39;100830.72;;;26.62;60.51
59971;BME280;45825;45.434;9.116;2023-07-09T06:26:04;100833.81;;;26.74;61.58
59971;BME280;45825;45.434;9.116;2023-07-09T06:28:30;100836.72;;;26.72;61.60
59971;BME280;45825;45.434;9.116;2023-07-09T06:30:55;100833.00;;;26.73;61.65
59971;BME280;45825;45.434;9.116;2023-07-09T06:33:21;100836.88;;;26.71;63.29
59971;BME280;45825;45.434;9.116;2023-07-09T06:35:55;100836.00;;;26.78;62.52
59971;BME280;45825;45.434;9.116;2023-07-09T06:38:21;100831.31;;;26.72;62.82
59971;BME280;45825;45.434;9.116;2023-07-09T06:40:47;100835.00;;;26.71;62.65
59971;BME280;45825;45.434;9.116;2023-07-09T06:43:13;100835.13;;;26.55;62.02
59971;BME280;45825;45.434;9.116;2023-07-09T06:45:38;100835.16;;;26.46;63.23
59971;BME280;45825;45.434;9.116;2023-07-09T06:48:04;100834.97;;;26.56;63.86
59971;BME280;45825;45.434;9.116;2023-07-09T06:50:33;100832.72;;;26.60;63.02
59971;BME280;45825;45.434;9.116;2023-07-09T06:52:58;100835.22;;;26.70;62.23
59971;BME280;45825;45.434;9.116;2023-07-09T06:55:23;100828.47;;;26.66;62.96
59971;BME280;45825;45.434;9.116;2023-07-09T06:57:49;100828.34;;;26.59;62.83
59971;BME280;45825;45.434;9.116;2023-07-09T07:00:14;100832.91;;;26.82;66.37
59971;BME280;45825;45.434;9.116;2023-07-09T07:02:40;100822.97;;;26.82;63.63
59971;BME280;45825;45.434;9.116;2023-07-09T07:05:05;100831.63;;;26.77;63.18
59971;BME280;45825;45.434;9.116;2023-07-09T07:07:31;100829.28;;;26.74;62.09
59971;BME280;45825;45.434;9.116;2023-07-09T07:09:56;100836.03;;;26.70;62.42
59971;BME280;45825;45.434;9.116;2023-07-09T07:12:27;100824.06;;;26.73;62.63
59971;BME280;45825;45.434;9.116;2023-07-09T07:14:53;100824.22;;;26.71;62.70
59971;BME280;45825;45.434;9.116;2023-07-09T07:17:19;100819.91;;;26.85;64.14
59971;BME280;45825;45.434;9.116;2023-07-09T07:19:44;100818.50;;;26.98;66.17
59971;BME280;45825;45.434;9.116;2023-07-09T07:22:10;100819.09;;;27.08;62.18
59971;BME280;45825;45.434;9.116;2023-07-09T07:24:35;100818.94;;;27.10;63.68
59971;BME280;45825;45.434;9.116;2023-07-09T07:27:00;100817.00;;;27.18;62.49
59971;BME280;45825;45.434;9.116;2023-07-09T07:29:26;100821.31;;;27.28;62.32
59971;BME280;45825;45.434;9.116;2023-07-09T07:31:51;100825.34;;;27.32;62.57
59971;BME280;45825;45.434;9.116;2023-07-09T07:34:16;100814.00;;;27.37;61.15
59971;BME280;45825;45.434;9.116;2023-07-09T07:36:41;100819.75;;;27.33;60.84
59971;BME280;45825;45.434;9.116;2023-07-09T07:39:07;100810.34;;;27.29;61.18
59971;BME280;45825;45.434;9.116;2023-07-09T07:41:32;100806.06;;;27.35;61.74
59971;BME280;45825;45.434;9.116;2023-07-09T07:43:57;100804.59;;;27.47;62.66
59971;BME280;45825;45.434;9.116;2023-07-09T07:46:23;100806.22;;;27.57;62.89
59971;BME280;45825;45.434;9.116;2023-07-09T07:48:48;100806.75;;;27.52;61.89
59971;BME280;45825;45.434;9.116;2023-07-09T07:51:13;100806.13;;;27.65;61.93
59971;BME280;45825;45.434;9.116;2023-07-09T07:53:38;100804.47;;;27.64;61.75
59971;BME280;45825;45.434;9.116;2023-07-09T07:56:04;100802.78;;;27.78;60.26
59971;BME280;45825;45.434;9.116;2023-07-09T07:58:31;100813.13;;;27.74;60.07
59971;BME280;45825;45.434;9.116;2023-07-09T08:00:57;100809.28;;;27.69;59.61
59971;BME280;45825;45.434;9.116;2023-07-09T08:03:23;100799.88;;;27.65;60.06
59971;BME280;45825;45.434;9.116;2023-07-09T08:05:52;100803.69;;;27.70;59.80
59971;BME280;45825;45.434;9.116;2023-07-09T08:08:18;100807.91;;;27.73;59.91
59971;BME280;45825;45.434;9.116;2023-07-09T08:10:43;100814.81;;;27.75;58.77
59971;BME280;45825;45.434;9.116;2023-07-09T08:13:09;100806.97;;;27.81;58.20
59971;BME280;45825;45.434;9.116;2023-07-09T08:15:35;100804.75;;;27.84;58.02
59971;BME280;45825;45.434;9.116;2023-07-09T08:18:00;100793.94;;;27.84;59.09
59971;BME280;45825;45.434;9.116;2023-07-09T08:20:25;100797.38;;;27.93;59.36
59971;BME280;45825;45.434;9.116;2023-07-09T08:22:50;100800.22;;;28.07;58.20
59971;BME280;45825;45.434;9.116;2023-07-09T08:25:16;100796.78;;;28.13;58.60
59971;BME280;45825;45.434;9.116;2023-07-09T08:27:41;100796.06;;;28.04;59.02
59971;BME280;45825;45.434;9.116;2023-07-09T08:30:07;100797.44;;;28.15;59.70
59971;BME280;45825;45.434;9.116;2023-07-09T08:32:33;100797.53;;;28.22;59.48
59971;BME280;45825;45.434;9.116;2023-07-09T08:34:58;100797.75;;;28.20;59.41
59971;BME280;45825;45.434;9.116;2023-07-09T08:37:23;100794.66;;;28.23;58.82
59971;BME280;45825;45.434;9.116;2023-07-09T08:39:49;100791.31;;;28.21;60.51
59971;BME280;45825;45.434;9.116;2023-07-09T08:42:19;100786.72;;;28.22;61.32
59971;BME280;45825;45.434;9.116;2023-07-09T08:47:45;100795.38;;;28.32;61.14
59971;BME280;45825;45.434;9.116;2023-07-09T08:50:15;100799.47;;;28.43;60.88
59971;BME280;45825;45.434;9.116;2023-07-09T08:52:44;100803.59;;;28.61;60.42
59971;BME280;45825;45.434;9.116;2023-07-09T08:55:23;100802.38;;;28.63;59.49
59971;BME280;45825;45.434;9.116;2023-07-09T08:57:57;100800.13;;;28.67;60.34
59971;BME280;45825;45.434;9.116;2023-07-09T09:00:31;100801.59;;;28.84;60.25
59971;BME280;45825;45.434;9.116;2023-07-09T09:03:14;100800.19;;;28.89;59.07
59971;BME280;45825;45.434;9.116;2023-07-09T09:05:43;100804.94;;;29.08;57.75
59971;BME280;45825;45.434;9.116;2023-07-09T09:11:10;100789.84;;;28.99;56.63
59971;BME280;45825;45.434;9.116;2023-07-09T09:13:37;100797.84;;;29.07;56.82
59971;BME280;45825;45.434;9.116;2023-07-09T09:16:09;100789.88;;;29.27;56.10
59971;BME280;45825;45.434;9.116;2023-07-09T09:18:41;100798.63;;;29.30;56.48
59971;BME280;45825;45.434;9.116;2023-07-09T09:21:15;100802.72;;;29.19;56.45
59971;BME280;45825;45.434;9.116;2023-07-09T09:23:52;100797.06;;;29.13;57.33
59971;BME280;45825;45.434;9.116;2023-07-09T09:26:24;100796.59;;;29.10;56.95
59971;BME280;45825;45.434;9.116;2023-07-09T09:28:50;100791.19;;;29.32;57.35
59971;BME280;45825;45.434;9.116;2023-07-09T09:31:17;100785.41;;;29.41;58.08
59971;BME280;45825;45.434;9.116;2023-07-09T09:33:44;100797.97;;;29.49;55.66
59971;BME280;45825;45.434;9.116;2023-07-09T09:36:19;100784.28;;;29.29;56.54
59971;BME280;45825;45.434;9.116;2023-07-09T09:38:44;100783.66;;;29.55;54.31
59971;BME280;45825;45.434;9.116;2023-07-09T09:41:19;100785.59;;;29.68;53.98
59971;BME280;45825;45.434;9.116;2023-07-09T09:46:23;100787.13;;;29.84;51.54
59971;BME280;45825;45.434;9.116;2023-07-09T09:48:50;100777.19;;;29.98;52.01
59971;BME280;45825;45.434;9.116;2023-07-09T09:51:17;100781.25;;;30.09;51.70
59971;BME280;45825;45.434;9.116;2023-07-09T09:54:03;100775.00;;;30.16;51.04
59971;BME280;45825;45.434;9.116;2023-07-09T09:56:36;100773.94;;;30.17;51.03
59971;BME280;45825;45.434;9.116;2023-07-09T09:59:03;100777.53;;;30.24;51.28
59971;BME280;45825;45.434;9.116;2023-07-09T10:01:32;100776.31;;;30.27;49.98
59971;BME280;45825;45.434;9.116;2023-07-09T10:04:01;100778.19;;;30.33;50.53
59971;BME280;45825;45.434;9.116;2023-07-09T10:06:42;100778.84;;;30.42;49.60
59971;BME280;45825;45.434;9.116;2023-07-09T10:09:31;100780.72;;;30.41;49.74
59971;BME280;45825;45.434;9.116;2023-07-09T10:12:28;100777.81;;;30.49;50.26
59971;BME280;45825;45.434;9.116;2023-07-09T10:21:07;100773.72;;;30.87;49.03
59971;BME280;45825;45.434;9.116;2023-07-09T10:26:48;100771.19;;;30.72;51.66
59971;BME280;45825;45.434;9.116;2023-07-09T10:29:43;100779.78;;;30.76;50.93
59971;BME280;45825;45.434;9.116;2023-07-09T10:32:38;100770.81;;;31.02;50.61
59971;BME280;45825;45.434;9.116;2023-07-09T10:35:19;100777.69;;;31.18;50.98
59971;BME280;45825;45.434;9.116;2023-07-09T10:40:45;100772.47;;;31.37;50.26
59971;BME280;45825;45.434;9.116;2023-07-09T10:43:16;100771.44;;;31.38;49.50
59971;BME280;45825;45.434;9.116;2023-07-09T10:45:47;100767.25;;;31.42;49.09
59971;BME280;45825;45.434;9.116;2023-07-09T10:48:17;100773.28;;;31.44;49.54
59971;BME280;45825;45.434;9.116;2023-07-09T10:50:49;100764.56;;;31.29;49.97
59971;BME280;45825;45.434;9.116;2023-07-09T10:53:40;100749.44;;;31.60;50.41
59971;BME280;45825;45.434;9.116;2023-07-09T10:56:19;100756.50;;;31.74;50.36
59971;BME280;45825;45.434;9.116;2023-07-09T10:59:02;100749.63;;;31.65;50.18
59971;BME280;45825;45.434;9.116;2023-07-09T11:01:46;100743.34;;;31.64;49.10
59971;BME280;45825;45.434;9.116;2023-07-09T11:07:17;100736.72;;;32.06;48.92
59971;BME280;45825;45.434;9.116;2023-07-09T11:09:47;100749.59;;;32.24;48.50
59971;BME280;45825;45.434;9.116;2023-07-09T11:12:34;100738.81;;;32.04;48.44
59971;BME280;45825;45.434;9.116;2023-07-09T11:15:06;100738.94;;;31.77;47.96
59971;BME280;45825;45.434;9.116;2023-07-09T11:17:37;100752.06;;;31.94;47.70
59971;BME280;45825;45.434;9.116;2023-07-09T11:20:25;100740.19;;;31.74;48.33
59971;BME280;45825;45.434;9.116;2023-07-09T11:23:04;100734.28;;;31.98;47.98
59971;BME280;45825;45.434;9.116;2023-07-09T11:25:45;100736.59;;;32.33;47.67
59971;BME280;45825;45.434;9.116;2023-07-09T11:28:11;100734.84;;;32.45;46.29
59971;BME280;45825;45.434;9.116;2023-07-09T11:30:51;100736.78;;;32.38;46.03
59971;BME280;45825;45.434;9.116;2023-07-09T11:33:26;100730.47;;;32.44;47.01
59971;BME280;45825;45.434;9.116;2023-07-09T11:35:54;100729.13;;;32.22;47.29
59971;BME280;45825;45.434;9.116;2023-07-09T11:38:42;100731.34;;;32.31;46.89
59971;BME280;45825;45.434;9.116;2023-07-09T11:41:34;100726.63;;;32.13;47.53
59971;BME280;45825;45.434;9.116;2023-07-09T11:46:31;100722.19;;;32.58;46.84
59971;BME280;45825;45.434;9.116;2023-07-09T11:48:57;100737.03;;;32.62;45.83
59971;BME280;45825;45.434;9.116;2023-07-09T11:51:38;100726.69;;;32.45;46.57
59971;BME280;45825;45.434;9.116;2023-07-09T11:54:05;100725.03;;;32.44;47.06
59971;BME280;45825;45.434;9.116;2023-07-09T11:56:32;100717.97;;;32.37;47.47
59971;BME280;45825;45.434;9.116;2023-07-09T11:58:58;100720.97;;;32.54;47.20
59971;BME280;45825;45.434;9.116;2023-07-09T12:01:33;100715.25;;;32.30;46.77
59971;BME280;45825;45.434;9.116;2023-07-09T12:03:59;100711.41;;;32.44;46.41
59971;BME280;45825;45.434;9.116;2023-07-09T12:06:28;100705.47;;;32.80;45.90
59971;BME280;45825;45.434;9.116;2023-07-09T12:08:54;100697.56;;;32.71;45.73
59971;BME280;45825;45.434;9.116;2023-07-09T12:11:34;100698.69;;;32.89;45.49
59971;BME280;45825;45.434;9.116;2023-07-09T12:14:03;100698.50;;;33.09;45.25
59971;BME280;45825;45.434;9.116;2023-07-09T12:16:31;100697.44;;;32.92;45.02
59971;BME280;45825;45.434;9.116;2023-07-09T12:18:58;100700.56;;;32.88;44.74
59971;BME280;45825;45.434;9.116;2023-07-09T12:21:24;100693.75;;;33.05;44.00
59971;BME280;45825;45.434;9.116;2023-07-09T12:23:50;100685.75;;;32.84;44.55
59971;BME280;45825;45.434;9.116;2023-07-09T12:26:19;100684.16;;;33.21;45.15
59971;BME280;45825;45.434;9.116;2023-07-09T12:28:57;100679.56;;;33.40;44.01
59971;BME280;45825;45.434;9.116;2023-07-09T12:31:28;100677.66;;;33.59;44.08
59971;BME280;45825;45.434;9.116;2023-07-09T12:33:56;100676.28;;;33.68;42.75
59971;BME280;45825;45.434;9.116;2023-07-09T12:36:23;100681.22;;;33.41;43.13
59971;BME280;45825;45.434;9.116;2023-07-09T12:38:51;100683.09;;;33.03;43.83
59971;BME280;45825;45.434;9.116;2023-07-09T12:41:28;100673.47;;;33.38;43.88
59971;BME280;45825;45.434;9.116;2023-07-09T12:43:55;100683.31;;;33.01;44.15
59971;BME280;45825;45.434;9.116;2023-07-09T12:46:24;100678.56;;;33.15;43.83
59971;BME280;45825;45.434;9.116;2023-07-09T12:48:49;100680.22;;;33.35;43.65
59971;BME280;45825;45.434;9.116;2023-07-09T12:51:29;100670.09;;;33.24;44.32
59971;BME280;45825;45.434;9.116;2023-07-09T12:54:12;100665.88;;;33.47;43.38
59971;BME280;45825;45.434;9.116;2023-07-09T12:56:38;100663.06;;;33.53;43.42
59971;BME280;45825;45.434;9.116;2023-07-09T12:59:18;100669.66;;;33.46;42.75
59971;BME280;45825;45.434;9.116;2023-07-09T13:02:37;100672.13;;;33.66;42.77
59971;BME280;45825;45.434;9.116;2023-07-09T13:04:37;100658.03;;;33.69;43.52
59971;BME280;45825;45.434;9.116;2023-07-09T13:07:03;100664.84;;;33.60;43.51
59971;BME280;45825;45.434;9.116;2023-07-09T13:09:29;100658.34;;;33.61;43.44
59971;BME280;45825;45.434;9.116;2023-07-09T13:11:56;100655.06;;;33.70;43.54
59971;BME280;45825;45.434;9.116;2023-07-09T13:14:27;100652.41;;;33.45;43.18
59971;BME280;45825;45.434;9.116;2023-07-09T13:17:02;100651.88;;;33.74;43.44
59971;BME280;45825;45.434;9.116;2023-07-09T13:19:28;100650.28;;;33.96;42.65
59971;BME280;45825;45.434;9.116;2023-07-09T13:21:53;100653.72;;;33.92;41.70
59971;BME280;45825;45.434;9.116;2023-07-09T13:24:22;100645.25;;;33.81;41.44
59971;BME280;45825;45.434;9.116;2023-07-09T13:26:48;100653.50;;;33.63;41.79